This is the latest recevied weather packets stored in our database for station/object KF6ILA. If no packets are shown the sender has not sent any weather packets the latest 10 day(s).
| Time | Temp. | Humidity | Pressure | Rain* | Wind** | Luminosity | Snow |
|---|---|---|---|---|---|---|---|
| 1788044336 | 29.44° C | 42% | 1015.5 hPa | 0 mm | - | 642 W/m² | - |
| 1788044039 | 29.44° C | 41% | 1015.5 hPa | 0 mm | - | 657 W/m² | - |
| 1788043742 | 30° C | 42% | 1015.5 hPa | 0 mm | - | 671 W/m² | - |
| 1788043445 | 30° C | 41% | 1015.7 hPa | 0 mm | - | 684 W/m² | - |
| 1788043148 | 30° C | 41% | 1015.7 hPa | 0 mm | - | 698 W/m² | - |
| 1788042851 | 30.56° C | 40% | 1015.9 hPa | 0 mm | - | 712 W/m² | - |
| 1788042554 | 30.56° C | 41% | 1016 hPa | 0 mm | - | 724 W/m² | - |
| 1788041960 | 30° C | 41% | 1016.1 hPa | 0 mm | - | 751 W/m² | - |
| 1788041663 | 30.56° C | 40% | 1016.1 hPa | 0 mm | - | 761 W/m² | - |
| 1788040772 | 31.11° C | 38% | 1016.1 hPa | 0 mm | - | 802 W/m² | - |
| 1788039765 | 31.67° C | 36% | 1016.9 hPa | 0 mm | - | 919 W/m² | - |
| 1788039584 | 31.11° C | 39% | 1016.4 hPa | 0 mm | - | 838 W/m² | - |
| 1788038990 | 31.11° C | 38% | 1016.6 hPa | 0 mm | - | 863 W/m² | - |
| 1788038693 | 31.11° C | 38% | 1016.5 hPa | 0 mm | - | 868 W/m² | - |
| 1788038099 | 31.67° C | 37% | 1016.7 hPa | 0 mm | - | 881 W/m² | - |
| 1788037208 | 32.22° C | 36% | 1016.8 hPa | 0 mm | - | 909 W/m² | - |
| 1788036911 | 31.67° C | 36% | 1016.9 hPa | 0 mm | - | 919 W/m² | - |
| 1788036020 | 31.11° C | 37% | 1017 hPa | 0 mm | - | 928 W/m² | - |
| 1788034841 | 30.56° C | 38% | - | 0 mm | - | - | - |
| 1788034238 | 30.56° C | 37% | 1017.1 hPa | 0 mm | - | 953 W/m² | - |
| 1788033941 | 30.56° C | 37% | 1017.1 hPa | 0 mm | - | 951 W/m² | - |
| 1788033644 | 30.56° C | - | - | 0 mm | - | - | - |
| 1788033644 | 30.56° C | - | - | 0 mm | - | - | - |
| 1788033050 | 31.11° C | 37% | 1017.5 hPa | 0 mm | - | 958 W/m² | - |
| 1788032753 | 30.56° C | 38% | 1017.5 hPa | 0 mm | - | 956 W/m² | - |
* Rain latest hour (hover to see other rain measurements)
** Current wind speed in m/s (hover to see current wind gust speed)